Edmonds, Washington
Current Conditions -  °F | °C
As of 12:53 AM on Friday 24 Oct 2014 (Local Time) from KPAE Reporting Station
Overcast Overcast  
Wind Chill:   Ceiling: 9000
Heat Index:   Visibility: 10mi
Dew Point:   Wind: 5mph
Humidity: 80%   Direction: NA
Pressure: 30.01"   Gusts: NA
Location:  47.81°N, 122.37°W
Report Text: KPAE 240753Z AUTO VRB04KT 10SM OVC090 09/06 A3001 RMK AO2 SLP162 T00940061 401390089
Loading
Personal Weather Stations






























Interactive Weather Map
Tropical Storm Tracking
New forecast layout! Learn more

10-Day Weather Forecast

Advertisements
Track Severe Weather on mobile